createdAt,value
2017-10-03T00:00:22.310Z,94.46
2017-10-03T00:01:22.338Z,94.46
2017-10-03T00:02:22.273Z,94.46
2017-10-03T00:03:43.275Z,94.56
2017-10-03T00:04:22.259Z,94.27
2017-10-03T00:05:22.225Z,94.27
2017-10-03T00:06:22.220Z,94.36
2017-10-03T00:07:22.183Z,94.36
2017-10-03T00:08:22.170Z,94.56
2017-10-03T00:09:43.172Z,94.17
2017-10-03T00:10:22.116Z,94.46
2017-10-03T00:11:22.116Z,94.56
2017-10-03T00:12:22.099Z,94.74
2017-10-03T00:13:22.101Z,94.84
2017-10-03T00:14:22.086Z,94.84
2017-10-03T00:15:43.044Z,94.70
2017-10-03T00:16:22.026Z,94.84
2017-10-03T00:17:21.986Z,94.74
2017-10-03T00:18:21.984Z,94.56
2017-10-03T00:19:21.987Z,94.32
2017-10-03T00:20:21.949Z,94.12
2017-10-03T00:21:42.924Z,94.70
2017-10-03T00:22:21.920Z,94.51
2017-10-03T00:23:21.885Z,94.79
2017-10-03T00:24:21.866Z,94.41
2017-10-03T00:25:21.856Z,94.32
2017-10-03T00:26:21.822Z,94.70
2017-10-03T00:27:42.838Z,94.70
2017-10-03T00:28:21.793Z,94.60
2017-10-03T00:29:21.784Z,94.51
2017-10-03T00:30:21.758Z,94.70
2017-10-03T00:31:21.749Z,94.70
2017-10-03T00:32:21.705Z,94.60
2017-10-03T00:33:42.700Z,94.60
2017-10-03T00:34:21.687Z,94.79
2017-10-03T00:35:21.669Z,94.98
2017-10-03T00:36:21.622Z,94.32
2017-10-03T00:37:21.638Z,94.60
2017-10-03T00:38:21.600Z,94.32
2017-10-03T00:39:42.593Z,94.60
2017-10-03T00:40:21.574Z,94.79
2017-10-03T00:41:21.547Z,94.51
2017-10-03T00:42:21.530Z,94.89
2017-10-03T00:43:21.517Z,94.51
2017-10-03T00:44:21.478Z,94.70
2017-10-03T00:45:42.487Z,94.70
2017-10-03T00:46:21.458Z,94.98
2017-10-03T00:47:21.415Z,95.08
2017-10-03T00:48:21.425Z,94.51
2017-10-03T00:49:21.405Z,95.08
2017-10-03T00:50:21.413Z,94.89
2017-10-03T00:51:42.369Z,94.89
2017-10-03T00:52:21.330Z,95.08
2017-10-03T00:53:21.306Z,94.89
2017-10-03T00:54:21.306Z,94.51
2017-10-03T00:55:21.269Z,94.79
2017-10-03T00:56:21.263Z,94.89
2017-10-03T00:57:42.232Z,94.41
2017-10-03T00:58:21.193Z,94.98
2017-10-03T00:59:21.189Z,94.70
2017-10-03T01:00:21.178Z,94.98
2017-10-03T01:01:21.174Z,94.51
2017-10-03T01:02:21.134Z,94.41
2017-10-03T01:03:42.116Z,94.70
2017-10-03T01:04:21.081Z,94.32
2017-10-03T01:05:21.085Z,94.60
2017-10-03T01:06:21.050Z,94.60
2017-10-03T01:07:21.037Z,94.60
2017-10-03T01:08:21.021Z,94.98
2017-10-03T01:09:42.008Z,94.41
2017-10-03T01:10:20.981Z,94.89
2017-10-03T01:11:20.958Z,95.08
2017-10-03T01:12:20.941Z,95.08
2017-10-03T01:13:20.921Z,94.70
2017-10-03T01:14:20.926Z,95.08
2017-10-03T01:15:41.917Z,94.89
2017-10-03T01:16:20.876Z,94.32
2017-10-03T01:17:20.854Z,94.51
2017-10-03T01:18:20.831Z,94.89
2017-10-03T01:19:20.813Z,94.51
2017-10-03T01:20:20.799Z,94.98
2017-10-03T01:21:41.835Z,94.70
2017-10-03T01:22:20.748Z,94.70
2017-10-03T01:23:20.738Z,94.79
2017-10-03T01:24:20.709Z,94.89
2017-10-03T01:25:20.702Z,94.89
2017-10-03T01:26:20.655Z,94.98
2017-10-03T01:27:41.668Z,94.70
2017-10-03T01:28:20.646Z,94.79
2017-10-03T01:29:20.637Z,94.70
2017-10-03T01:30:20.617Z,94.60
2017-10-03T01:31:20.575Z,94.60
2017-10-03T01:32:20.556Z,94.79
2017-10-03T01:33:41.540Z,94.51
2017-10-03T01:34:20.538Z,94.51
2017-10-03T01:35:20.496Z,94.51
2017-10-03T01:36:20.465Z,94.51
2017-10-03T01:37:20.480Z,94.51
2017-10-03T01:38:20.448Z,94.98
2017-10-03T01:39:41.417Z,94.51
2017-10-03T01:40:20.402Z,94.98
2017-10-03T01:41:20.388Z,94.89
2017-10-03T01:42:20.376Z,94.89
2017-10-03T01:43:20.340Z,94.51
2017-10-03T01:44:20.330Z,94.51
2017-10-03T01:45:41.338Z,94.51
2017-10-03T01:46:20.287Z,94.98
2017-10-03T01:47:20.260Z,94.89
2017-10-03T01:48:20.238Z,94.98
2017-10-03T01:49:20.220Z,94.98
2017-10-03T01:50:20.197Z,94.51
2017-10-03T01:51:41.210Z,94.60
2017-10-03T01:52:20.171Z,94.60
2017-10-03T01:53:20.163Z,94.98
2017-10-03T01:54:20.152Z,94.98
2017-10-03T01:55:20.125Z,95.27
2017-10-03T01:56:20.091Z,94.98
2017-10-03T01:57:41.079Z,94.98
2017-10-03T01:58:20.038Z,95.17
2017-10-03T01:59:20.031Z,95.27
2017-10-03T02:00:20.042Z,95.27
2017-10-03T02:01:19.986Z,95.27
2017-10-03T02:02:19.963Z,95.27
2017-10-03T02:03:40.983Z,95.41
2017-10-03T02:04:19.959Z,95.12
2017-10-03T02:05:19.936Z,95.03
2017-10-03T02:06:19.906Z,94.65
2017-10-03T02:07:19.868Z,94.74
2017-10-03T02:08:19.864Z,94.84
2017-10-03T02:09:40.872Z,95.08
2017-10-03T02:10:19.823Z,95.27
2017-10-03T02:11:19.801Z,95.17
2017-10-03T02:12:19.771Z,94.98
2017-10-03T02:13:19.782Z,94.98
2017-10-03T02:14:19.736Z,95.17
2017-10-03T02:15:40.722Z,95.65
2017-10-03T02:16:19.699Z,95.03
2017-10-03T02:17:19.675Z,94.98
2017-10-03T02:18:19.648Z,95.22
2017-10-03T02:19:19.704Z,94.70
2017-10-03T02:20:19.613Z,94.98
2017-10-03T02:21:40.608Z,94.93
2017-10-03T02:22:19.581Z,94.70
2017-10-03T02:23:19.562Z,95.03
2017-10-03T02:24:19.570Z,94.65
2017-10-03T02:25:19.524Z,94.70
2017-10-03T02:26:19.503Z,95.17
2017-10-03T02:27:40.555Z,95.03
2017-10-03T02:28:19.469Z,95.08
2017-10-03T02:29:19.432Z,95.27
2017-10-03T02:30:19.426Z,95.03
2017-10-03T02:31:19.398Z,95.08
2017-10-03T02:32:19.420Z,94.65
2017-10-03T02:33:40.350Z,94.84
2017-10-03T02:34:19.327Z,94.74
2017-10-03T02:35:19.339Z,94.84
2017-10-03T02:36:19.298Z,94.93
2017-10-03T02:37:19.276Z,94.93
2017-10-03T02:38:19.252Z,94.93
2017-10-03T02:39:40.241Z,94.84
2017-10-03T02:40:19.213Z,95.08
2017-10-03T02:41:19.194Z,94.89
2017-10-03T02:42:19.217Z,94.89
2017-10-03T02:43:19.171Z,95.27
2017-10-03T02:44:19.152Z,95.27
2017-10-03T02:45:40.122Z,95.08
2017-10-03T02:46:19.191Z,95.08
2017-10-03T02:47:19.089Z,95.08
2017-10-03T02:48:19.057Z,95.27
2017-10-03T02:49:19.044Z,95.08
2017-10-03T02:50:19.016Z,95.17
2017-10-03T02:51:40.005Z,95.17
2017-10-03T02:52:18.982Z,94.98
2017-10-03T02:53:18.965Z,95.08
2017-10-03T02:54:18.951Z,94.70
2017-10-03T02:55:18.936Z,94.79
2017-10-03T02:56:18.902Z,94.89
2017-10-03T02:57:39.895Z,95.08
2017-10-03T02:58:18.872Z,94.98
2017-10-03T02:59:18.852Z,94.89
2017-10-03T03:00:18.856Z,94.98
2017-10-03T03:01:18.809Z,94.89
2017-10-03T03:02:18.788Z,94.89
2017-10-03T03:03:39.785Z,94.79
2017-10-03T03:04:18.768Z,94.89
2017-10-03T03:05:18.736Z,94.84
2017-10-03T03:06:18.735Z,95.32
2017-10-03T03:07:18.712Z,95.51
2017-10-03T03:08:18.675Z,95.51
2017-10-03T03:09:39.652Z,95.51
2017-10-03T03:10:18.639Z,95.41
2017-10-03T03:11:18.612Z,95.41
2017-10-03T03:12:18.602Z,95.22
2017-10-03T03:13:18.574Z,95.41
2017-10-03T03:14:18.567Z,95.22
2017-10-03T03:15:39.539Z,95.41
2017-10-03T03:16:18.522Z,95.32
2017-10-03T03:17:18.498Z,95.61
2017-10-03T03:18:18.484Z,95.61
2017-10-03T03:19:18.494Z,95.61
2017-10-03T03:20:18.447Z,95.32
2017-10-03T03:21:39.426Z,95.41
2017-10-03T03:22:18.394Z,95.61
2017-10-03T03:23:18.384Z,95.41
2017-10-03T03:24:18.355Z,95.51
2017-10-03T03:25:18.386Z,95.51
2017-10-03T03:26:18.329Z,95.61
2017-10-03T03:27:39.322Z,95.79
2017-10-03T03:28:18.305Z,95.70
2017-10-03T03:29:18.303Z,95.70
2017-10-03T03:30:18.245Z,95.51
2017-10-03T03:31:18.227Z,95.41
2017-10-03T03:32:18.226Z,95.70
2017-10-03T03:33:39.197Z,95.89
2017-10-03T03:34:18.173Z,95.89
2017-10-03T03:35:18.172Z,95.89
2017-10-03T03:36:18.122Z,95.79
2017-10-03T03:37:18.121Z,95.41
2017-10-03T03:38:18.090Z,95.79
2017-10-03T03:39:39.119Z,95.98
2017-10-03T03:40:18.045Z,95.51
2017-10-03T03:41:18.052Z,95.61
2017-10-03T03:42:18.023Z,95.70
2017-10-03T03:43:17.999Z,95.89
2017-10-03T03:44:17.978Z,95.70
2017-10-03T03:45:38.965Z,95.61
2017-10-03T03:46:17.955Z,95.70
2017-10-03T03:47:17.916Z,96.17
2017-10-03T03:48:17.897Z,95.61
2017-10-03T03:49:17.887Z,95.61
2017-10-03T03:50:17.861Z,96.17
2017-10-03T03:51:38.842Z,95.41
2017-10-03T03:52:17.817Z,95.51
2017-10-03T03:53:17.802Z,95.98
2017-10-03T03:54:17.820Z,95.98
2017-10-03T03:55:17.764Z,95.89
2017-10-03T03:56:17.745Z,95.79
2017-10-03T03:57:38.725Z,95.89
2017-10-03T03:58:17.722Z,95.79
2017-10-03T03:59:17.691Z,95.79
2017-10-03T04:00:17.661Z,95.79
2017-10-03T04:01:17.645Z,95.89
2017-10-03T04:02:17.629Z,95.89
2017-10-03T04:03:38.601Z,95.89
2017-10-03T04:04:17.638Z,95.98
2017-10-03T04:05:17.566Z,95.89
2017-10-03T04:06:17.547Z,95.51
2017-10-03T04:07:17.531Z,95.41
2017-10-03T04:08:17.514Z,95.51
2017-10-03T04:09:38.488Z,95.61
2017-10-03T04:10:17.466Z,96.17
2017-10-03T04:11:17.448Z,95.89
2017-10-03T04:12:17.438Z,95.98
2017-10-03T04:13:17.412Z,95.89
2017-10-03T04:14:17.399Z,95.98
2017-10-03T04:15:38.372Z,96.27
2017-10-03T04:16:17.347Z,96.08
2017-10-03T04:17:17.323Z,96.27
2017-10-03T04:18:17.317Z,95.98
2017-10-03T04:19:17.299Z,95.98
2017-10-03T04:20:17.272Z,95.89
2017-10-03T04:21:38.251Z,96.08
2017-10-03T04:22:17.222Z,96.08
2017-10-03T04:23:17.215Z,96.56
2017-10-03T04:24:17.199Z,96.56
2017-10-03T04:25:17.177Z,96.46
2017-10-03T04:26:17.148Z,96.56
2017-10-03T04:27:38.182Z,96.27
2017-10-03T04:28:17.127Z,96.17
2017-10-03T04:29:17.092Z,96.17
2017-10-03T04:30:17.096Z,96.08
2017-10-03T04:31:17.057Z,96.27
2017-10-03T04:32:17.047Z,96.17
2017-10-03T04:33:38.031Z,96.08
2017-10-03T04:34:17.004Z,96.56
2017-10-03T04:35:16.980Z,96.17
2017-10-03T04:36:16.966Z,96.08
2017-10-03T04:37:16.946Z,96.56
2017-10-03T04:38:16.926Z,96.56
2017-10-03T04:39:37.905Z,96.56
2017-10-03T04:40:16.885Z,96.36
2017-10-03T04:41:16.867Z,96.36
2017-10-03T04:42:16.847Z,96.36
2017-10-03T04:43:16.824Z,96.27
2017-10-03T04:44:16.807Z,95.89
2017-10-03T04:45:37.783Z,96.22
2017-10-03T04:46:16.760Z,96.36
2017-10-03T04:47:16.748Z,95.98
2017-10-03T04:48:16.715Z,96.27
2017-10-03T04:49:16.713Z,96.36
2017-10-03T04:50:16.691Z,96.36
2017-10-03T04:51:37.664Z,96.36
2017-10-03T04:52:16.636Z,96.08
2017-10-03T04:53:16.629Z,96.17
2017-10-03T04:54:16.618Z,96.17
2017-10-03T04:55:16.613Z,96.17
2017-10-03T04:56:16.569Z,96.17
2017-10-03T04:57:37.552Z,96.17
2017-10-03T04:58:16.526Z,96.17
2017-10-03T04:59:16.507Z,96.17
2017-10-03T05:00:16.485Z,96.17
2017-10-03T05:01:16.464Z,96.08
2017-10-03T05:02:16.445Z,96.56
2017-10-03T05:03:37.430Z,96.56
2017-10-03T05:04:16.411Z,96.56
2017-10-03T05:05:16.406Z,96.08
2017-10-03T05:06:16.380Z,96.17
2017-10-03T05:07:16.337Z,96.17
2017-10-03T05:08:16.368Z,96.17
2017-10-03T05:09:37.369Z,96.17
2017-10-03T05:10:16.281Z,95.98
2017-10-03T05:11:16.305Z,96.17
2017-10-03T05:12:16.324Z,96.08
2017-10-03T05:13:16.242Z,96.36
2017-10-03T05:14:16.216Z,96.36
2017-10-03T05:15:37.197Z,96.36
2017-10-03T05:16:16.174Z,96.56
2017-10-03T05:17:16.147Z,96.36
2017-10-03T05:18:16.147Z,96.56
2017-10-03T05:19:16.153Z,96.17
2017-10-03T05:20:16.122Z,96.08
2017-10-03T05:21:37.107Z,96.56
2017-10-03T05:22:16.087Z,96.56
2017-10-03T05:23:16.074Z,96.27
2017-10-03T05:24:16.011Z,96.27
2017-10-03T05:25:16.002Z,96.27
2017-10-03T05:26:15.973Z,96.36
2017-10-03T05:27:36.946Z,96.36
2017-10-03T05:28:15.935Z,96.17
2017-10-03T05:29:15.928Z,96.17
2017-10-03T05:30:15.897Z,96.17
2017-10-03T05:31:15.878Z,96.56
2017-10-03T05:32:15.865Z,96.56
2017-10-03T05:33:36.843Z,96.56
2017-10-03T05:34:15.816Z,96.08
2017-10-03T05:35:15.802Z,96.46
2017-10-03T05:36:15.791Z,96.08
2017-10-03T05:37:15.774Z,95.98
2017-10-03T05:38:15.735Z,96.17
2017-10-03T05:39:36.722Z,96.36
2017-10-03T05:40:15.696Z,96.56
2017-10-03T05:41:15.679Z,96.17
2017-10-03T05:42:15.715Z,96.17
2017-10-03T05:43:15.644Z,96.17
2017-10-03T05:44:15.638Z,96.17
2017-10-03T05:45:36.618Z,96.17
2017-10-03T05:46:15.587Z,96.36
2017-10-03T05:47:15.562Z,96.27
2017-10-03T05:48:15.540Z,96.27
2017-10-03T05:49:15.523Z,96.27
2017-10-03T05:50:15.541Z,96.56
2017-10-03T05:51:36.490Z,96.56
2017-10-03T05:52:15.476Z,96.27
2017-10-03T05:53:15.441Z,96.08
2017-10-03T05:54:15.458Z,96.56
2017-10-03T05:55:15.400Z,96.46
2017-10-03T05:56:15.396Z,96.36
2017-10-03T05:57:36.394Z,96.56
2017-10-03T05:58:15.371Z,96.56
2017-10-03T05:59:15.334Z,96.36
2017-10-03T06:00:15.311Z,96.36
2017-10-03T06:01:15.293Z,96.17
2017-10-03T06:02:15.298Z,96.08
2017-10-03T06:03:36.254Z,95.98
2017-10-03T06:04:15.224Z,96.17
2017-10-03T06:05:15.248Z,95.98
2017-10-03T06:06:15.190Z,96.08
2017-10-03T06:07:15.177Z,96.17
2017-10-03T06:08:15.153Z,95.98
2017-10-03T06:09:36.149Z,95.89
2017-10-03T06:10:15.123Z,95.98
2017-10-03T06:11:15.088Z,95.98
2017-10-03T06:12:15.072Z,95.98
2017-10-03T06:13:15.058Z,95.98
2017-10-03T06:14:15.031Z,95.98
2017-10-03T06:15:36.022Z,95.41
2017-10-03T06:16:15.001Z,95.51
2017-10-03T06:17:14.966Z,95.51
2017-10-03T06:18:14.988Z,95.89
2017-10-03T06:19:14.945Z,95.79
2017-10-03T06:20:14.930Z,95.41
2017-10-03T06:21:35.896Z,95.51
2017-10-03T06:22:14.896Z,95.46
2017-10-03T06:23:14.865Z,95.51
2017-10-03T06:24:14.850Z,95.56
2017-10-03T06:25:14.822Z,95.41
2017-10-03T06:26:14.815Z,95.41
2017-10-03T06:27:35.792Z,95.98
2017-10-03T06:28:14.770Z,95.89
2017-10-03T06:29:14.769Z,95.94
2017-10-03T06:30:14.728Z,95.61
2017-10-03T06:31:14.703Z,95.98
2017-10-03T06:32:14.690Z,95.61
2017-10-03T06:33:35.725Z,95.98
2017-10-03T06:34:14.667Z,96.08
2017-10-03T06:35:14.626Z,95.98
2017-10-03T06:36:14.615Z,96.17
2017-10-03T06:37:14.589Z,96.08
2017-10-03T06:38:14.566Z,96.08
2017-10-03T06:39:35.550Z,95.98
2017-10-03T06:40:14.539Z,95.41
2017-10-03T06:41:14.539Z,95.79
2017-10-03T06:42:14.496Z,96.22
2017-10-03T06:43:14.496Z,95.84
2017-10-03T06:44:14.447Z,95.75
2017-10-03T06:45:35.478Z,95.65
2017-10-03T06:46:14.415Z,95.65
2017-10-03T06:47:14.403Z,95.46
2017-10-03T06:48:14.370Z,95.56
2017-10-03T06:49:14.353Z,95.46
2017-10-03T06:50:14.339Z,95.37
2017-10-03T06:51:35.338Z,95.27
2017-10-03T06:52:14.289Z,95.46
2017-10-03T06:53:14.276Z,95.37
2017-10-03T06:54:14.254Z,95.65
2017-10-03T06:55:14.239Z,95.65
2017-10-03T06:56:14.225Z,95.46
2017-10-03T06:57:35.215Z,95.46
2017-10-03T06:58:14.175Z,95.37
2017-10-03T06:59:14.177Z,95.46
2017-10-03T07:00:14.145Z,95.46
2017-10-03T07:01:14.125Z,95.27
2017-10-03T07:02:14.110Z,95.56
2017-10-03T07:03:35.111Z,95.37
2017-10-03T07:04:14.064Z,95.65
2017-10-03T07:05:14.045Z,95.75
2017-10-03T07:06:14.028Z,94.98
2017-10-03T07:07:14.016Z,95.17
2017-10-03T07:08:13.984Z,95.17
2017-10-03T07:09:34.976Z,95.27
2017-10-03T07:10:13.954Z,95.17
2017-10-03T07:11:13.945Z,94.84
2017-10-03T07:12:13.912Z,95.03
2017-10-03T07:13:13.893Z,94.93
2017-10-03T07:14:13.887Z,95.03
2017-10-03T07:15:34.850Z,94.84
2017-10-03T07:16:13.842Z,94.93
2017-10-03T07:17:13.824Z,94.74
2017-10-03T07:18:13.793Z,94.36
2017-10-03T07:19:13.783Z,94.36
2017-10-03T07:20:13.755Z,94.51
2017-10-03T07:21:34.769Z,94.12
2017-10-03T07:22:13.713Z,94.03
2017-10-03T07:23:13.687Z,94.41
2017-10-03T07:24:13.686Z,93.93
2017-10-03T07:25:13.675Z,93.93
2017-10-03T07:26:13.653Z,93.93
2017-10-03T07:27:34.620Z,94.51
2017-10-03T07:28:13.608Z,93.65
2017-10-03T07:29:13.579Z,93.55
2017-10-03T07:30:13.558Z,93.74
2017-10-03T07:31:13.545Z,93.84
2017-10-03T07:32:13.546Z,93.55
2017-10-03T07:33:34.513Z,92.97
2017-10-03T07:34:13.553Z,93.26
2017-10-03T07:35:14.371Z,93.50
2017-10-03T07:36:13.456Z,93.31
2017-10-03T07:37:13.438Z,93.41
2017-10-03T07:38:13.414Z,93.21
2017-10-03T07:39:34.385Z,92.64
2017-10-03T07:40:13.405Z,92.83
2017-10-03T07:41:13.393Z,92.40
2017-10-03T07:42:13.418Z,92.79
2017-10-03T07:43:13.323Z,92.59
2017-10-03T07:44:13.298Z,92.11
2017-10-03T07:45:34.307Z,92.21
2017-10-03T07:46:13.266Z,92.02
2017-10-03T07:47:13.245Z,92.21
2017-10-03T07:48:13.251Z,91.93
2017-10-03T07:49:13.226Z,92.25
2017-10-03T07:50:13.199Z,91.88
2017-10-03T07:51:34.256Z,91.30
2017-10-03T07:52:13.201Z,90.87
2017-10-03T07:53:13.225Z,90.72
2017-10-03T07:54:13.178Z,89.67
2017-10-03T07:55:13.195Z,89.14
2017-10-03T07:56:13.418Z,87.70
2017-10-03T07:57:34.233Z,85.38
2017-10-03T07:58:13.058Z,83.01
2017-10-03T07:59:13.062Z,80.06
2017-10-03T08:00:13.053Z,77.88
2017-10-03T08:01:13.043Z,77.15
2017-10-03T08:02:13.077Z,78.17
2017-10-03T08:03:33.989Z,78.21
2017-10-03T08:04:12.985Z,78.46
2017-10-03T08:05:12.950Z,79.28
2017-10-03T08:06:12.950Z,80.69
2017-10-03T08:07:12.920Z,81.17
2017-10-03T08:08:12.907Z,81.37
2017-10-03T08:09:33.907Z,81.94
2017-10-03T08:10:12.908Z,81.99
2017-10-03T08:11:12.890Z,82.86
2017-10-03T08:12:12.858Z,83.15
2017-10-03T08:13:12.826Z,83.87
2017-10-03T08:14:12.899Z,83.49
2017-10-03T08:15:33.836Z,84.41
2017-10-03T08:16:12.807Z,84.41
2017-10-03T08:17:12.803Z,84.89
2017-10-03T08:18:12.780Z,84.41
2017-10-03T08:19:12.776Z,84.99
2017-10-03T08:20:12.738Z,83.87
2017-10-03T08:21:33.725Z,82.48
2017-10-03T08:22:12.707Z,81.07
2017-10-03T08:23:12.692Z,81.32
2017-10-03T08:24:12.722Z,81.42
2017-10-03T08:25:12.668Z,81.76
2017-10-03T08:26:12.649Z,83.01
2017-10-03T08:27:33.675Z,83.20
2017-10-03T08:28:12.629Z,82.92
2017-10-03T08:29:12.620Z,83.07
2017-10-03T08:30:12.654Z,83.70
2017-10-03T08:31:12.613Z,83.59
2017-10-03T08:32:12.590Z,81.46
2017-10-03T08:33:33.581Z,79.13
2017-10-03T08:34:12.565Z,76.07
2017-10-03T08:35:12.571Z,73.22
2017-10-03T08:36:12.533Z,69.69
2017-10-03T08:37:12.525Z,67.47
2017-10-03T08:38:12.490Z,65.79
2017-10-03T08:39:33.499Z,64.65
2017-10-03T08:40:12.474Z,65.56
2017-10-03T08:41:12.471Z,67.88
2017-10-03T08:42:12.453Z,70.20
2017-10-03T08:43:12.413Z,72.84
2017-10-03T08:44:12.448Z,75.43
2017-10-03T08:45:33.449Z,77.09
2017-10-03T08:46:12.391Z,78.21
2017-10-03T08:47:12.409Z,79.38
2017-10-03T08:48:12.392Z,80.83
2017-10-03T08:49:12.390Z,81.27
2017-10-03T08:50:12.368Z,81.32
2017-10-03T08:51:33.382Z,81.99
2017-10-03T08:52:12.505Z,81.86
2017-10-03T08:53:12.331Z,82.15
2017-10-03T08:54:12.304Z,82.43
2017-10-03T08:55:12.303Z,82.68
2017-10-03T08:56:12.277Z,82.97
2017-10-03T08:57:33.281Z,83.22
2017-10-03T08:58:12.249Z,82.74
2017-10-03T08:59:12.226Z,82.63
2017-10-03T09:00:12.225Z,79.48
2017-10-03T09:01:12.210Z,75.40
2017-10-03T09:02:12.190Z,73.06
2017-10-03T09:03:33.484Z,71.26
2017-10-03T09:04:12.209Z,70.97
2017-10-03T09:05:12.163Z,71.00
2017-10-03T09:06:12.150Z,69.43
2017-10-03T09:07:12.125Z,67.40
2017-10-03T09:08:12.158Z,65.72
2017-10-03T09:09:33.131Z,62.81
2017-10-03T09:10:12.117Z,60.96
2017-10-03T09:11:12.100Z,59.17
2017-10-03T09:12:12.107Z,59.43
2017-10-03T09:13:12.079Z,60.54
2017-10-03T09:14:12.062Z,62.42
2017-10-03T09:15:33.055Z,64.23
2017-10-03T09:16:12.073Z,64.17
2017-10-03T09:17:12.031Z,63.95
2017-10-03T09:18:11.998Z,63.95
2017-10-03T09:19:12.009Z,63.20
2017-10-03T09:20:12.028Z,62.91
2017-10-03T09:21:32.995Z,62.55
2017-10-03T09:22:11.975Z,61.12
2017-10-03T09:23:11.968Z,60.25
2017-10-03T09:24:11.961Z,60.80
2017-10-03T09:25:12.063Z,62.39
2017-10-03T09:26:11.940Z,64.92
2017-10-03T09:27:32.935Z,67.24
2017-10-03T09:28:11.949Z,69.17
2017-10-03T09:29:11.959Z,70.84
2017-10-03T09:30:11.917Z,72.25
2017-10-03T09:31:11.919Z,73.33
2017-10-03T09:32:11.903Z,74.74
2017-10-03T09:33:32.902Z,75.73
2017-10-03T09:34:11.891Z,76.69
2017-10-03T09:35:11.869Z,77.23
2017-10-03T09:36:11.868Z,77.58
2017-10-03T09:37:11.888Z,78.27
2017-10-03T09:38:11.835Z,79.22
2017-10-03T09:39:32.828Z,79.47
2017-10-03T09:40:11.828Z,79.91
2017-10-03T09:41:11.837Z,80.11
2017-10-03T09:42:11.806Z,80.49
2017-10-03T09:43:11.784Z,80.35
2017-10-03T09:44:11.834Z,81.02
2017-10-03T09:45:32.754Z,80.60
2017-10-03T09:46:11.745Z,80.99
2017-10-03T09:47:11.732Z,81.23
2017-10-03T09:48:11.721Z,81.81
2017-10-03T09:49:11.831Z,81.38
2017-10-03T09:50:11.704Z,81.96
2017-10-03T09:51:32.731Z,82.15
2017-10-03T09:52:11.723Z,81.96
2017-10-03T09:53:11.666Z,81.67
2017-10-03T09:54:11.669Z,80.81
2017-10-03T09:55:11.645Z,80.71
2017-10-03T09:56:11.607Z,80.47
2017-10-03T09:57:32.588Z,79.89
2017-10-03T09:58:11.572Z,79.22
2017-10-03T09:59:11.561Z,79.13
2017-10-03T10:00:11.560Z,78.84
2017-10-03T10:01:11.527Z,78.45
2017-10-03T10:02:11.520Z,77.88
2017-10-03T10:03:32.508Z,78.07
2017-10-03T10:04:11.482Z,77.82
2017-10-03T10:05:11.462Z,77.63
2017-10-03T10:06:11.464Z,77.34
2017-10-03T10:07:11.449Z,76.86
2017-10-03T10:08:11.416Z,76.96
2017-10-03T10:09:32.406Z,76.77
2017-10-03T10:10:11.393Z,77.15
2017-10-03T10:11:11.379Z,76.96
2017-10-03T10:12:11.350Z,76.86
2017-10-03T10:13:11.351Z,76.42
2017-10-03T10:14:11.502Z,75.56
2017-10-03T10:15:32.318Z,75.21
2017-10-03T10:16:11.340Z,74.58
2017-10-03T10:17:11.318Z,73.33
2017-10-03T10:18:11.321Z,73.66
2017-10-03T10:19:11.282Z,73.18
2017-10-03T10:20:11.265Z,73.08
2017-10-03T10:21:32.252Z,73.14
2017-10-03T10:22:11.225Z,73.46
2017-10-03T10:23:11.207Z,73.18
2017-10-03T10:24:11.204Z,73.43
2017-10-03T10:25:11.166Z,73.81
2017-10-03T10:26:11.153Z,74.44
2017-10-03T10:27:32.153Z,74.73
2017-10-03T10:28:11.154Z,75.31
2017-10-03T10:29:11.128Z,75.18
2017-10-03T10:30:11.084Z,75.95
2017-10-03T10:31:11.075Z,75.71
2017-10-03T10:32:11.060Z,75.85
2017-10-03T10:33:32.043Z,75.85
2017-10-03T10:34:11.038Z,75.62
2017-10-03T10:35:11.015Z,76.19
2017-10-03T10:36:11.006Z,76.67
2017-10-03T10:37:10.988Z,76.73
2017-10-03T10:38:10.976Z,76.73
2017-10-03T10:39:31.989Z,77.31
2017-10-03T10:40:10.954Z,78.03
2017-10-03T10:41:10.958Z,77.75
2017-10-03T10:42:10.915Z,77.84
2017-10-03T10:43:10.895Z,77.55
2017-10-03T10:44:10.878Z,77.02
2017-10-03T10:45:31.865Z,75.71
2017-10-03T10:46:10.836Z,74.35
2017-10-03T10:47:10.834Z,73.68
2017-10-03T10:48:10.850Z,72.95
2017-10-03T10:49:10.806Z,71.29
2017-10-03T10:50:10.777Z,67.87
2017-10-03T10:51:31.790Z,64.79
2017-10-03T10:52:10.778Z,62.08
2017-10-03T10:53:10.736Z,62.25
2017-10-03T10:54:10.749Z,63.28
2017-10-03T10:55:10.704Z,64.47
2017-10-03T10:56:10.696Z,66.07
2017-10-03T10:57:31.694Z,67.58
2017-10-03T10:58:10.684Z,68.41
2017-10-03T10:59:10.738Z,69.57
2017-10-03T11:00:10.663Z,69.67
2017-10-03T11:01:10.652Z,68.54
2017-10-03T11:02:10.668Z,66.62
2017-10-03T11:03:31.662Z,63.66
2017-10-03T11:04:10.612Z,60.08
2017-10-03T11:05:10.609Z,58.82
2017-10-03T11:06:10.565Z,59.56
2017-10-03T11:07:10.571Z,60.05
2017-10-03T11:08:10.562Z,60.44
2017-10-03T11:09:31.547Z,61.11
2017-10-03T11:10:10.531Z,61.02
2017-10-03T11:11:10.519Z,60.63
2017-10-03T11:12:10.525Z,59.91
2017-10-03T11:13:10.511Z,59.17
2017-10-03T11:14:10.511Z,59.07
2017-10-03T11:15:31.487Z,59.33
2017-10-03T11:16:10.520Z,59.79
2017-10-03T11:17:10.454Z,60.66
2017-10-03T11:18:10.539Z,60.72
2017-10-03T11:19:10.428Z,60.30
2017-10-03T11:20:10.488Z,58.55
2017-10-03T11:21:31.444Z,55.73
2017-10-03T11:22:10.410Z,53.77
2017-10-03T11:23:10.407Z,53.47
2017-10-03T11:24:10.389Z,52.53
2017-10-03T11:25:10.382Z,51.24
2017-10-03T11:26:10.388Z,49.93
2017-10-03T11:27:31.408Z,48.05
2017-10-03T11:28:10.364Z,47.19
2017-10-03T11:29:10.345Z,46.92
2017-10-03T11:30:10.351Z,47.58
2017-10-03T11:31:10.350Z,48.41
2017-10-03T11:32:13.234Z,49.73
2017-10-03T11:33:31.349Z,51.31
2017-10-03T11:34:10.362Z,52.94
2017-10-03T11:35:10.365Z,52.45
2017-10-03T11:36:10.336Z,51.43
2017-10-03T11:37:10.340Z,50.38
2017-10-03T11:38:10.318Z,49.07
2017-10-03T11:39:31.314Z,48.05
2017-10-03T11:40:10.332Z,47.31
2017-10-03T11:41:10.291Z,45.97
2017-10-03T11:42:10.322Z,45.20
2017-10-03T11:43:10.298Z,44.83
2017-10-03T11:44:10.288Z,45.03
2017-10-03T11:45:31.305Z,45.28
2017-10-03T11:46:10.293Z,48.46
2017-10-03T11:47:10.292Z,52.04
2017-10-03T11:48:10.318Z,56.35
2017-10-03T11:49:10.267Z,59.63
2017-10-03T11:50:10.258Z,62.15
2017-10-03T11:51:31.270Z,63.37
2017-10-03T11:52:10.250Z,62.18
2017-10-03T11:53:10.250Z,59.84
2017-10-03T11:54:10.239Z,57.03
2017-10-03T11:55:10.229Z,54.46
2017-10-03T11:56:10.240Z,52.59
2017-10-03T11:57:31.229Z,50.41
2017-10-03T11:58:10.219Z,49.29
2017-10-03T11:59:10.224Z,48.90
2017-10-03T12:00:10.205Z,49.17
2017-10-03T12:01:10.205Z,49.07
2017-10-03T12:02:10.231Z,48.88
2017-10-03T12:03:31.240Z,48.39
2017-10-03T12:04:10.168Z,49.27
2017-10-03T12:05:10.175Z,49.99
2017-10-03T12:06:10.175Z,50.95
2017-10-03T12:07:10.168Z,51.97
2017-10-03T12:08:10.171Z,53.30
2017-10-03T12:09:31.164Z,54.60
2017-10-03T12:10:10.379Z,55.44
2017-10-03T12:11:10.132Z,56.10
2017-10-03T12:12:10.138Z,56.65
2017-10-03T12:13:10.152Z,56.36
2017-10-03T12:14:10.142Z,57.01
2017-10-03T12:15:31.139Z,57.50
2017-10-03T12:16:10.893Z,56.49
2017-10-03T12:17:10.106Z,53.53
2017-10-03T12:18:10.104Z,52.47
2017-10-03T12:19:10.102Z,53.15
2017-10-03T12:20:10.083Z,53.51
2017-10-03T12:21:31.080Z,53.77
2017-10-03T12:22:11.234Z,53.89
2017-10-03T12:23:10.447Z,53.24
2017-10-03T12:24:10.385Z,51.53
2017-10-03T12:25:10.392Z,51.40
2017-10-03T12:26:13.244Z,53.00
2017-10-03T12:27:31.048Z,53.85
2017-10-03T12:28:10.070Z,54.23
2017-10-03T12:29:10.035Z,53.49
2017-10-03T12:30:10.027Z,52.37
2017-10-03T12:31:10.005Z,51.43
2017-10-03T12:32:09.999Z,50.19
2017-10-03T12:33:31.002Z,49.73
2017-10-03T12:34:09.984Z,48.95
2017-10-03T12:35:09.991Z,48.03
2017-10-03T12:36:09.966Z,47.17
2017-10-03T12:37:10.107Z,45.74
2017-10-03T12:38:09.978Z,45.74
2017-10-03T12:39:30.967Z,45.28
2017-10-03T12:40:09.933Z,44.52
2017-10-03T12:41:09.941Z,44.83
2017-10-03T12:42:09.957Z,44.52
2017-10-03T12:43:10.003Z,44.71
2017-10-03T12:44:09.928Z,45.47
2017-10-03T12:45:30.964Z,45.20
2017-10-03T12:46:09.945Z,44.52
2017-10-03T12:47:09.904Z,44.52
2017-10-03T12:48:09.926Z,44.90
2017-10-03T12:49:09.921Z,45.45
2017-10-03T12:50:09.886Z,46.69
2017-10-03T12:51:30.920Z,47.44
2017-10-03T12:52:09.893Z,47.52